Time;durP1;ratioP1;P1;durP2;ratioP2;P2;SDS_P1;SDS_P2;PMS_P1;PMS_P2;Temp;Humidity;BMP_temperature;BMP_pressure;BME280_temperature;BME280_humidity;BME280_pressure;Samples;Min_cycle;Max_cycle;Signal;HPM_P1;HPM_P2
2022/11/14 00:00:44;;;;;;;30.23;14.40;;;;;;;;;;4981296;28;20501;-90
2022/11/14 00:03:11;;;;;;;34.35;14.43;;;;;;;;;;4985678;28;20085;-89
2022/11/14 00:05:44;;;;;;;37.40;15.02;;;;;;;;;;4989804;28;20034;-89
2022/11/14 00:08:21;;;;;;;40.58;14.85;;;;;;;;;;4987152;28;20038;-89
2022/11/14 00:10:51;;;;;;;31.55;14.45;;;;;;;;;;4997878;28;20030;-89
2022/11/14 00:13:18;;;;;;;31.05;15.63;;;;;;;;;;4976246;28;20037;-89
2022/11/14 00:15:44;;;;;;;36.30;15.57;;;;;;;;;;4982901;28;20500;-89
2022/11/14 00:18:10;;;;;;;35.10;14.13;;;;;;;;;;4982318;28;20093;-90
2022/11/14 00:20:37;;;;;;;26.17;12.18;;;;;;;;;;4971672;28;20057;-90
2022/11/14 00:23:03;;;;;;;35.90;15.95;;;;;;;;;;4989164;28;20450;-89
2022/11/14 00:25:29;;;;;;;35.67;15.88;;;;;;;;;;4969875;28;20801;-90
2022/11/14 00:27:58;;;;;;;37.60;15.45;;;;;;;;;;4980823;28;20129;-89
2022/11/14 00:30:24;;;;;;;41.47;16.00;;;;;;;;;;4985485;28;20561;-89
2022/11/14 00:32:50;;;;;;;35.90;15.65;;;;;;;;;;4969843;28;20456;-89
2022/11/14 00:35:17;;;;;;;38.22;16.83;;;;;;;;;;4974706;28;20057;-90
2022/11/14 00:37:49;;;;;;;47.80;18.13;;;;;;;;;;4995272;28;20047;-89
2022/11/14 00:40:16;;;;;;;44.97;17.92;;;;;;;;;;4986084;28;20042;-89
2022/11/14 00:42:42;;;;;;;41.75;16.45;;;;;;;;;;5007557;28;20038;-89
2022/11/14 00:45:12;;;;;;;43.47;17.35;;;;;;;;;;5009420;28;20101;-90
2022/11/14 00:47:39;;;;;;;42.17;16.98;;;;;;;;;;4982809;28;20077;-89
2022/11/14 00:50:12;;;;;;;32.78;14.25;;;;;;;;;;4967434;28;20042;-89
2022/11/14 00:52:39;;;;;;;32.22;14.52;;;;;;;;;;4985229;28;20030;-89
2022/11/14 00:55:05;;;;;;;47.50;17.52;;;;;;;;;;4962198;28;20042;-88
2022/11/14 00:57:31;;;;;;;45.45;19.67;;;;;;;;;;4979841;28;20054;-89
2022/11/14 00:59:58;;;;;;;45.90;19.73;;;;;;;;;;4992446;28;20041;-89
2022/11/14 01:02:24;;;;;;;43.20;18.75;;;;;;;;;;4966084;28;20041;-88
2022/11/14 01:04:50;;;;;;;49.00;18.38;;;;;;;;;;4972167;28;20482;-89
2022/11/14 01:07:16;;;;;;;47.72;19.17;;;;;;;;;;5002896;28;20351;-89
2022/11/14 01:09:42;;;;;;;45.22;19.02;;;;;;;;;;4991453;28;20034;-89
2022/11/14 01:12:08;;;;;;;50.88;19.50;;;;;;;;;;4995467;28;20033;-89
2022/11/14 01:14:35;;;;;;;54.60;21.95;;;;;;;;;;4984676;28;20173;-89
2022/11/14 01:17:03;;;;;;;49.33;22.35;;;;;;;;;;4978928;28;20046;-89
2022/11/14 01:19:32;;;;;;;51.22;23.33;;;;;;;;;;4992967;28;20123;-89
2022/11/14 01:22:00;;;;;;;58.83;24.88;;;;;;;;;;4991197;28;20041;-89
2022/11/14 01:24:26;;;;;;;55.42;22.17;;;;;;;;;;4991058;28;20071;-89
2022/11/14 01:26:55;;;;;;;58.75;24.58;;;;;;;;;;4992423;28;20030;-89
2022/11/14 01:29:21;;;;;;;57.20;25.20;;;;;;;;;;4994949;28;20031;-89
2022/11/14 01:31:47;;;;;;;58.05;25.65;;;;;;;;;;4977734;28;20062;-90
2022/11/14 01:34:13;;;;;;;59.65;26.25;;;;;;;;;;4983043;28;20030;-89
2022/11/14 01:36:39;;;;;;;60.92;25.55;;;;;;;;;;4994835;28;20042;-89
2022/11/14 01:39:05;;;;;;;59.35;24.30;;;;;;;;;;4962082;28;20149;-89
2022/11/14 01:41:31;;;;;;;62.90;26.08;;;;;;;;;;4979803;28;20125;-90
2022/11/14 01:43:57;;;;;;;56.05;22.17;;;;;;;;;;4975513;28;20034;-89
2022/11/14 01:46:33;;;;;;;55.53;26.48;;;;;;;;;;4972109;28;20061;-89
2022/11/14 01:49:05;;;;;;;68.43;25.95;;;;;;;;;;4979636;28;20030;-89
2022/11/14 01:51:58;;;;;;;60.63;27.05;;;;;;;;;;4983933;28;20038;-89
2022/11/14 01:54:29;;;;;;;59.20;22.77;;;;;;;;;;4915305;29;20044;-89
2022/11/14 01:56:57;;;;;;;61.10;25.75;;;;;;;;;;5002378;28;20050;-89
2022/11/14 01:59:27;;;;;;;66.60;28.83;;;;;;;;;;4990591;28;20085;-89
2022/11/14 02:01:55;;;;;;;71.28;25.13;;;;;;;;;;5005960;28;20022;-90
2022/11/14 02:04:29;;;;;;;79.00;30.55;;;;;;;;;;4982113;28;20116;-89
2022/11/14 02:06:58;;;;;;;67.30;28.13;;;;;;;;;;4985854;28;20057;-89
2022/11/14 02:09:25;;;;;;;65.32;27.65;;;;;;;;;;4987872;28;20443;-89
2022/11/14 02:11:52;;;;;;;70.10;28.20;;;;;;;;;;4982817;28;20045;-90
2022/11/14 02:14:19;;;;;;;56.80;24.52;;;;;;;;;;4989405;28;20044;-89
2022/11/14 02:16:45;;;;;;;68.05;27.45;;;;;;;;;;4987690;28;20371;-89
2022/11/14 02:19:13;;;;;;;72.10;27.25;;;;;;;;;;4977455;28;20134;-90
2022/11/14 02:21:39;;;;;;;67.50;29.63;;;;;;;;;;4994700;28;20038;-90
2022/11/14 02:24:12;;;;;;;76.80;29.73;;;;;;;;;;4976446;28;20459;-90
2022/11/14 02:26:39;;;;;;;64.90;27.05;;;;;;;;;;4992783;28;20578;-89
2022/11/14 02:29:06;;;;;;;67.38;27.88;;;;;;;;;;4982848;28;20057;-90
2022/11/14 02:31:32;;;;;;;63.15;26.40;;;;;;;;;;4987365;28;20046;-90
2022/11/14 02:34:02;;;;;;;65.70;26.73;;;;;;;;;;4991955;28;20045;-89
2022/11/14 02:36:28;;;;;;;68.25;28.55;;;;;;;;;;4991758;28;20064;-89
2022/11/14 02:38:54;;;;;;;66.55;25.67;;;;;;;;;;5005692;28;20159;-89
2022/11/14 02:41:20;;;;;;;67.07;29.00;;;;;;;;;;4995159;28;20045;-89
2022/11/14 02:43:46;;;;;;;70.53;26.95;;;;;;;;;;5020605;28;20034;-89
2022/11/14 02:46:12;;;;;;;73.07;27.27;;;;;;;;;;4989981;28;20037;-90
2022/11/14 02:48:38;;;;;;;62.45;25.52;;;;;;;;;;5001532;28;20045;-89
2022/11/14 02:51:04;;;;;;;66.10;26.67;;;;;;;;;;4978796;28;20509;-89
2022/11/14 02:53:30;;;;;;;71.07;28.13;;;;;;;;;;4996297;28;20385;-89
2022/11/14 02:55:56;;;;;;;58.80;25.58;;;;;;;;;;4988130;28;20037;-89
2022/11/14 02:58:22;;;;;;;71.95;27.17;;;;;;;;;;5005355;28;20543;-89
2022/11/14 03:00:48;;;;;;;66.57;27.73;;;;;;;;;;5007960;28;20038;-89
2022/11/14 03:03:14;;;;;;;64.65;25.42;;;;;;;;;;4987170;28;20180;-89
2022/11/14 03:05:40;;;;;;;52.90;22.58;;;;;;;;;;5006636;28;20033;-90
2022/11/14 03:08:07;;;;;;;62.55;25.65;;;;;;;;;;5006420;28;20037;-89
2022/11/14 03:10:33;;;;;;;60.72;26.25;;;;;;;;;;4991543;28;20125;-89
2022/11/14 03:13:02;;;;;;;62.95;27.02;;;;;;;;;;4992940;28;20041;-90
2022/11/14 03:15:28;;;;;;;64.38;24.73;;;;;;;;;;4996002;28;20040;-89
2022/11/14 03:17:54;;;;;;;55.50;23.25;;;;;;;;;;5014008;28;20473;-90
2022/11/14 03:20:21;;;;;;;59.80;24.70;;;;;;;;;;4994116;28;20124;-90
2022/11/14 03:22:47;;;;;;;63.55;26.95;;;;;;;;;;4993970;28;20672;-90
2022/11/14 03:25:13;;;;;;;59.15;22.88;;;;;;;;;;5005481;28;20124;-89
2022/11/14 03:27:39;;;;;;;63.88;25.30;;;;;;;;;;4990117;28;20160;-89
2022/11/14 03:30:05;;;;;;;49.38;21.35;;;;;;;;;;4987296;28;20030;-89
2022/11/14 03:32:31;;;;;;;63.60;27.42;;;;;;;;;;5007052;28;20032;-90
2022/11/14 03:34:57;;;;;;;59.60;25.10;;;;;;;;;;4999874;28;20109;-89
2022/11/14 03:37:23;;;;;;;49.13;22.48;;;;;;;;;;5004625;28;20190;-90
2022/11/14 03:39:49;;;;;;;60.08;22.92;;;;;;;;;;4978715;28;20580;-90
2022/11/14 03:42:16;;;;;;;59.80;25.45;;;;;;;;;;4991982;28;20066;-90
2022/11/14 03:44:42;;;;;;;60.22;25.80;;;;;;;;;;4973688;28;20416;-89
2022/11/14 03:47:08;;;;;;;55.83;23.48;;;;;;;;;;4974743;28;20877;-90
2022/11/14 03:49:34;;;;;;;64.82;26.17;;;;;;;;;;4976327;28;20744;-90
2022/11/14 03:52:00;;;;;;;63.15;28.25;;;;;;;;;;5007197;28;20041;-89
2022/11/14 03:54:26;;;;;;;48.90;19.85;;;;;;;;;;4961967;28;20089;-89
2022/11/14 03:56:52;;;;;;;50.42;23.05;;;;;;;;;;4969522;28;20053;-90
2022/11/14 03:59:18;;;;;;;60.42;23.42;;;;;;;;;;4981745;28;20030;-90
2022/11/14 04:01:44;;;;;;;55.40;22.17;;;;;;;;;;4987042;28;20532;-90
2022/11/14 04:04:11;;;;;;;63.63;24.38;;;;;;;;;;4988252;28;20421;-90
2022/11/14 04:06:37;;;;;;;62.65;23.27;;;;;;;;;;4980905;28;20034;-89
2022/11/14 04:09:03;;;;;;;63.83;27.05;;;;;;;;;;4973782;28;20544;-89
2022/11/14 04:11:30;;;;;;;51.13;22.27;;;;;;;;;;4989113;28;20034;-89
2022/11/14 04:13:56;;;;;;;56.17;23.90;;;;;;;;;;4974118;28;20381;-89
2022/11/14 04:16:22;;;;;;;55.05;22.10;;;;;;;;;;4985410;28;20040;-89
2022/11/14 04:18:48;;;;;;;62.30;26.42;;;;;;;;;;4987093;28;20064;-89
2022/11/14 04:21:14;;;;;;;59.45;26.95;;;;;;;;;;4974288;28;20050;-90
2022/11/14 04:23:40;;;;;;;57.35;22.50;;;;;;;;;;4983678;28;20132;-89
2022/11/14 04:26:06;;;;;;;61.10;26.65;;;;;;;;;;4970075;28;20048;-90
2022/11/14 04:28:33;;;;;;;66.85;26.70;;;;;;;;;;4985601;28;20038;-90
2022/11/14 04:30:59;;;;;;;64.68;27.25;;;;;;;;;;4991996;28;20061;-90
2022/11/14 04:33:31;;;;;;;73.78;28.42;;;;;;;;;;4973028;28;20509;-90
2022/11/14 04:35:57;;;;;;;65.72;27.73;;;;;;;;;;4984030;28;20038;-90
2022/11/14 04:38:29;;;;;;;70.45;29.73;;;;;;;;;;4993370;28;20045;-90
2022/11/14 04:40:55;;;;;;;64.10;25.30;;;;;;;;;;4993048;28;20041;-89
2022/11/14 04:43:25;;;;;;;65.85;28.52;;;;;;;;;;4994331;28;20028;-90
2022/11/14 04:45:51;;;;;;;62.95;26.25;;;;;;;;;;5014121;28;20041;-89
2022/11/14 04:48:18;;;;;;;61.80;26.77;;;;;;;;;;4994509;28;20654;-90
2022/11/14 04:50:46;;;;;;;66.03;27.50;;;;;;;;;;5019148;28;20457;-89
2022/11/14 04:53:12;;;;;;;49.28;22.42;;;;;;;;;;5008422;28;20029;-90
2022/11/14 04:55:38;;;;;;;55.38;23.17;;;;;;;;;;5007501;28;20528;-89
2022/11/14 04:58:04;;;;;;;46.55;22.38;;;;;;;;;;5006555;28;20022;-89
2022/11/14 05:00:30;;;;;;;56.22;23.92;;;;;;;;;;5006322;28;20087;-89
2022/11/14 05:02:58;;;;;;;54.55;26.33;;;;;;;;;;5008495;28;20022;-89
2022/11/14 05:05:24;;;;;;;55.42;22.73;;;;;;;;;;5008843;28;20037;-90
2022/11/14 05:07:54;;;;;;;46.63;23.42;;;;;;;;;;4991589;28;20033;-90
2022/11/14 05:10:20;;;;;;;51.95;22.95;;;;;;;;;;5002846;28;20017;-89
2022/11/14 05:12:46;;;;;;;53.13;22.20;;;;;;;;;;5005862;28;20033;-90
2022/11/14 05:15:12;;;;;;;55.13;24.05;;;;;;;;;;4993521;28;20095;-90
2022/11/14 05:17:38;;;;;;;57.05;24.40;;;;;;;;;;4992236;28;20401;-90
2022/11/14 05:20:13;;;;;;;59.05;21.52;;;;;;;;;;5004953;28;20041;-90
2022/11/14 05:22:39;;;;;;;49.13;21.35;;;;;;;;;;4992965;28;20025;-89
2022/11/14 05:25:06;;;;;;;46.90;17.50;;;;;;;;;;5007561;28;20054;-89
2022/11/14 05:27:32;;;;;;;60.38;25.05;;;;;;;;;;5000009;28;20038;-89
2022/11/14 05:29:58;;;;;;;51.65;22.85;;;;;;;;;;5006116;28;20365;-89
2022/11/14 05:32:24;;;;;;;58.50;24.67;;;;;;;;;;5002750;28;20052;-89
2022/11/14 05:34:50;;;;;;;50.63;20.80;;;;;;;;;;4988572;28;20044;-90
2022/11/14 05:37:16;;;;;;;53.08;24.63;;;;;;;;;;4992977;28;20030;-90
2022/11/14 05:39:59;;;;;;;55.38;21.48;;;;;;;;;;5016465;28;20044;-89
2022/11/14 05:42:26;;;;;;;61.17;24.85;;;;;;;;;;5012163;28;20045;-90
2022/11/14 05:44:55;;;;;;;51.70;20.80;;;;;;;;;;5022403;28;20021;-90
2022/11/14 05:47:21;;;;;;;58.88;26.63;;;;;;;;;;4999370;28;20052;-89
2022/11/14 05:49:47;;;;;;;53.47;22.27;;;;;;;;;;5007699;28;20030;-90
2022/11/14 05:52:13;;;;;;;65.95;26.17;;;;;;;;;;4993285;28;20452;-89
2022/11/14 05:54:39;;;;;;;59.88;25.98;;;;;;;;;;5004136;28;20485;-90
2022/11/14 05:57:05;;;;;;;55.70;25.05;;;;;;;;;;5012535;28;20054;-89
2022/11/14 05:59:32;;;;;;;55.47;23.67;;;;;;;;;;4991314;28;20033;-90
2022/11/14 06:01:58;;;;;;;55.67;23.33;;;;;;;;;;4998393;28;20097;-89
2022/11/14 06:04:24;;;;;;;48.67;21.17;;;;;;;;;;4999329;28;20030;-90
2022/11/14 06:06:53;;;;;;;55.55;24.48;;;;;;;;;;5008771;28;20043;-89
2022/11/14 06:09:19;;;;;;;64.18;24.77;;;;;;;;;;5003495;28;20042;-90
2022/11/14 06:11:45;;;;;;;65.53;26.20;;;;;;;;;;5003381;28;20128;-91
2022/11/14 06:14:11;;;;;;;56.63;24.58;;;;;;;;;;5002032;28;20098;-90
2022/11/14 06:16:37;;;;;;;67.32;25.23;;;;;;;;;;5007842;28;20447;-88
2022/11/14 06:19:04;;;;;;;61.10;24.88;;;;;;;;;;4982982;28;20030;-89
2022/11/14 06:21:30;;;;;;;61.22;26.52;;;;;;;;;;5028254;28;20037;-90
2022/11/14 06:23:56;;;;;;;66.80;27.05;;;;;;;;;;5006417;28;20503;-89
2022/11/14 06:26:29;;;;;;;61.53;25.05;;;;;;;;;;5018160;28;20164;-89
2022/11/14 06:28:55;;;;;;;62.53;25.25;;;;;;;;;;4998597;28;20025;-89
2022/11/14 06:31:21;;;;;;;59.85;25.25;;;;;;;;;;4978139;28;20022;-89
2022/11/14 06:33:47;;;;;;;65.35;25.42;;;;;;;;;;4996413;28;20345;-89
2022/11/14 06:36:13;;;;;;;53.40;22.05;;;;;;;;;;5004483;28;20037;-89
2022/11/14 06:38:40;;;;;;;55.72;22.30;;;;;;;;;;4989966;28;20041;-89
2022/11/14 06:41:07;;;;;;;67.43;26.00;;;;;;;;;;4985589;28;20045;-89
2022/11/14 06:43:37;;;;;;;67.07;25.70;;;;;;;;;;4997405;28;20030;-89
2022/11/14 06:46:04;;;;;;;61.65;23.85;;;;;;;;;;4970247;28;20032;-89
2022/11/14 06:48:30;;;;;;;49.95;20.20;;;;;;;;;;4976150;28;20084;-89
2022/11/14 06:50:57;;;;;;;64.95;25.75;;;;;;;;;;4966480;28;20116;-89
2022/11/14 06:53:24;;;;;;;65.47;23.42;;;;;;;;;;4965554;28;20513;-89
2022/11/14 06:56:03;;;;;;;69.82;25.58;;;;;;;;;;4982874;28;20053;-89
2022/11/14 06:58:30;;;;;;;60.58;26.65;;;;;;;;;;4979964;28;20037;-89
2022/11/14 07:00:57;;;;;;;45.67;18.65;;;;;;;;;;4964518;28;20113;-90
2022/11/14 07:03:23;;;;;;;58.08;22.98;;;;;;;;;;4962415;28;20470;-89
2022/11/14 07:05:49;;;;;;;67.03;27.08;;;;;;;;;;4968698;28;20038;-89
2022/11/14 07:08:15;;;;;;;65.05;25.88;;;;;;;;;;4968084;28;20034;-89
2022/11/14 07:10:41;;;;;;;65.97;25.33;;;;;;;;;;4982503;28;20064;-89
2022/11/14 07:13:09;;;;;;;62.15;25.50;;;;;;;;;;4965202;28;20029;-89
2022/11/14 07:15:35;;;;;;;68.75;25.13;;;;;;;;;;4975642;28;20038;-89
2022/11/14 07:18:01;;;;;;;54.92;23.67;;;;;;;;;;4963547;28;20675;-89
2022/11/14 07:20:27;;;;;;;68.50;25.40;;;;;;;;;;4970592;28;20037;-88
2022/11/14 07:22:53;;;;;;;51.10;21.90;;;;;;;;;;4962796;28;20042;-89
2022/11/14 07:25:21;;;;;;;58.53;21.38;;;;;;;;;;4959310;28;20122;-89
2022/11/14 07:27:48;;;;;;;74.10;28.50;;;;;;;;;;4967751;28;20041;-90
2022/11/14 07:30:14;;;;;;;62.55;25.50;;;;;;;;;;4980535;28;20053;-90
2022/11/14 07:32:40;;;;;;;63.22;23.15;;;;;;;;;;4966877;28;20038;-90
2022/11/14 07:35:07;;;;;;;58.67;22.30;;;;;;;;;;4979153;28;20042;-89
2022/11/14 07:37:33;;;;;;;65.53;23.02;;;;;;;;;;4966298;28;20042;-90
2022/11/14 07:39:59;;;;;;;77.00;28.15;;;;;;;;;;4961621;28;20054;-89
2022/11/14 07:42:28;;;;;;;53.95;22.10;;;;;;;;;;4964332;28;20025;-89
2022/11/14 07:44:54;;;;;;;71.95;26.08;;;;;;;;;;4978611;28;20474;-90
2022/11/14 07:47:20;;;;;;;67.25;26.08;;;;;;;;;;4969159;28;20041;-90
2022/11/14 07:49:49;;;;;;;61.50;24.70;;;;;;;;;;4968859;28;20089;-90
2022/11/14 07:52:15;;;;;;;61.38;25.13;;;;;;;;;;4986875;28;20030;-90
2022/11/14 07:54:41;;;;;;;65.35;25.35;;;;;;;;;;4984449;28;20892;-89
2022/11/14 07:57:08;;;;;;;70.53;27.05;;;;;;;;;;4974041;28;20041;-89
2022/11/14 07:59:34;;;;;;;58.45;22.23;;;;;;;;;;4967804;28;20038;-89
2022/11/14 08:02:03;;;;;;;68.15;24.65;;;;;;;;;;5005082;28;20029;-89
2022/11/14 08:04:29;;;;;;;66.80;27.23;;;;;;;;;;4988193;28;21060;-89
2022/11/14 08:06:55;;;;;;;70.35;25.58;;;;;;;;;;4968603;28;20490;-88
2022/11/14 08:09:22;;;;;;;68.78;27.55;;;;;;;;;;4973870;28;20080;-89
2022/11/14 08:11:48;;;;;;;73.35;27.40;;;;;;;;;;4983936;28;20040;-89
2022/11/14 08:14:15;;;;;;;69.53;26.77;;;;;;;;;;4987670;28;20105;-89
2022/11/14 08:16:41;;;;;;;57.00;22.58;;;;;;;;;;5003024;28;20076;-89
2022/11/14 08:19:07;;;;;;;70.13;26.90;;;;;;;;;;4961320;28;20038;-89
2022/11/14 08:21:33;;;;;;;66.32;25.77;;;;;;;;;;4993331;28;20045;-89
2022/11/14 08:23:59;;;;;;;71.65;26.05;;;;;;;;;;4987821;28;20037;-88
2022/11/14 08:26:25;;;;;;;70.90;28.83;;;;;;;;;;4975178;28;20029;-89
2022/11/14 08:28:55;;;;;;;69.20;26.13;;;;;;;;;;4976876;28;20045;-89
2022/11/14 08:31:21;;;;;;;65.63;26.58;;;;;;;;;;4983475;28;20030;-88
2022/11/14 08:33:50;;;;;;;68.63;27.98;;;;;;;;;;4977016;28;20030;-88
2022/11/14 08:36:16;;;;;;;63.08;25.15;;;;;;;;;;4991394;28;20049;-88
2022/11/14 08:38:42;;;;;;;66.85;25.13;;;;;;;;;;4989287;28;20053;-88
2022/11/14 08:41:39;;;;;;;67.63;26.95;;;;;;;;;;4984510;28;20550;-89
2022/11/14 08:44:05;;;;;;;68.40;25.95;;;;;;;;;;4975379;28;20045;-89
2022/11/14 08:46:31;;;;;;;64.43;26.42;;;;;;;;;;4975109;28;20386;-88
2022/11/14 08:48:57;;;;;;;69.78;27.55;;;;;;;;;;4977418;28;20034;-89
2022/11/14 08:51:23;;;;;;;53.30;22.63;;;;;;;;;;4971776;28;20030;-89
2022/11/14 08:53:51;;;;;;;52.22;20.58;;;;;;;;;;4976037;28;20041;-89
2022/11/14 08:56:17;;;;;;;61.88;23.00;;;;;;;;;;4982165;28;21289;-88
2022/11/14 08:58:43;;;;;;;55.55;23.15;;;;;;;;;;4988448;28;20117;-88
2022/11/14 09:01:09;;;;;;;59.08;23.55;;;;;;;;;;4986031;28;20390;-89
2022/11/14 09:03:35;;;;;;;65.07;26.48;;;;;;;;;;4970701;28;20422;-88
2022/11/14 09:06:01;;;;;;;58.47;23.98;;;;;;;;;;4969187;28;20034;-88
2022/11/14 09:08:28;;;;;;;59.75;25.63;;;;;;;;;;4984131;28;20385;-88
2022/11/14 09:10:54;;;;;;;63.00;25.15;;;;;;;;;;4988752;28;20037;-88
2022/11/14 09:13:21;;;;;;;57.92;24.02;;;;;;;;;;4969524;28;20201;-89
2022/11/14 09:15:47;;;;;;;58.22;25.02;;;;;;;;;;5000210;28;20076;-89
2022/11/14 09:18:14;;;;;;;57.92;24.23;;;;;;;;;;4962375;28;20034;-89
2022/11/14 09:20:40;;;;;;;55.75;23.90;;;;;;;;;;4982079;28;20084;-89
2022/11/14 09:23:06;;;;;;;60.20;24.25;;;;;;;;;;4963384;28;20553;-89
2022/11/14 09:25:32;;;;;;;63.15;26.02;;;;;;;;;;4972355;28;20501;-89
2022/11/14 09:28:02;;;;;;;65.05;23.85;;;;;;;;;;4981059;28;20029;-89
2022/11/14 09:30:28;;;;;;;54.28;23.38;;;;;;;;;;4981246;28;20053;-88
2022/11/14 09:32:59;;;;;;;67.10;24.33;;;;;;;;;;4976909;28;20567;-89
2022/11/14 09:35:26;;;;;;;61.28;26.42;;;;;;;;;;4994037;28;20288;-89
2022/11/14 09:37:58;;;;;;;56.75;23.70;;;;;;;;;;4967883;28;20485;-89
2022/11/14 09:40:24;;;;;;;60.92;25.55;;;;;;;;;;4984239;28;20543;-89
2022/11/14 09:42:59;;;;;;;50.88;22.05;;;;;;;;;;4968568;28;20065;-89
2022/11/14 09:45:27;;;;;;;63.83;26.88;;;;;;;;;;4978980;28;20025;-91
2022/11/14 09:48:04;;;;;;;58.75;26.08;;;;;;;;;;4995631;28;20389;-90
2022/11/14 09:50:33;;;;;;;62.75;25.63;;;;;;;;;;4983880;28;20030;-89
2022/11/14 09:53:02;;;;;;;55.35;23.77;;;;;;;;;;4980657;28;20520;-90
2022/11/14 09:55:30;;;;;;;56.75;24.35;;;;;;;;;;4981869;28;20389;-90
2022/11/14 09:57:56;;;;;;;54.85;23.67;;;;;;;;;;4980085;28;20037;-89
2022/11/14 10:00:23;;;;;;;59.78;25.88;;;;;;;;;;4965700;28;20038;-89
2022/11/14 10:03:09;;;;;;;55.63;24.08;;;;;;;;;;4997961;28;20405;-90
2022/11/14 10:05:35;;;;;;;49.63;21.17;;;;;;;;;;4976088;28;20030;-90
2022/11/14 10:08:04;;;;;;;48.55;22.52;;;;;;;;;;4998853;28;20065;-90
2022/11/14 10:10:36;;;;;;;53.95;23.42;;;;;;;;;;4978457;28;20030;-90
2022/11/14 10:13:02;;;;;;;58.38;23.98;;;;;;;;;;4981125;28;20033;-90
2022/11/14 10:15:49;;;;;;;53.75;23.23;;;;;;;;;;4980319;28;20374;-90
2022/11/14 10:18:38;;;;;;;43.45;19.50;;;;;;;;;;4992103;28;20046;-90
2022/11/14 10:21:04;;;;;;;59.40;24.30;;;;;;;;;;4978003;28;20014;-90
2022/11/14 10:23:45;;;;;;;53.92;22.65;;;;;;;;;;4978456;28;20026;-91
2022/11/14 10:26:11;;;;;;;50.78;24.38;;;;;;;;;;4976286;28;20029;-90
2022/11/14 10:28:59;;;;;;;51.28;24.17;;;;;;;;;;4983292;28;20045;-90
2022/11/14 10:31:26;;;;;;;52.38;22.90;;;;;;;;;;4981331;28;20077;-90
2022/11/14 10:33:52;;;;;;;53.03;23.27;;;;;;;;;;4979872;28;20037;-90
2022/11/14 10:36:26;;;;;;;49.70;22.05;;;;;;;;;;4984599;28;20029;-90
2022/11/14 10:38:58;;;;;;;50.60;24.40;;;;;;;;;;4984873;28;20449;-90
2022/11/14 10:41:25;;;;;;;50.78;23.23;;;;;;;;;;4987324;28;20056;-90
2022/11/14 10:43:54;;;;;;;51.92;24.02;;;;;;;;;;4988663;28;20108;-90
2022/11/14 10:46:30;;;;;;;56.97;25.52;;;;;;;;;;4989212;28;20033;-90
2022/11/14 10:48:56;;;;;;;44.53;19.50;;;;;;;;;;5002215;28;20517;-90
2022/11/14 10:51:43;;;;;;;50.97;24.80;;;;;;;;;;4964269;28;20042;-88
2022/11/14 10:54:10;;;;;;;54.80;23.15;;;;;;;;;;4985189;28;20090;-90
2022/11/14 10:56:48;;;;;;;54.67;25.67;;;;;;;;;;4980803;28;20426;-90
2022/11/14 10:59:15;;;;;;;54.47;24.63;;;;;;;;;;4981088;28;20112;-90
2022/11/14 11:01:42;;;;;;;50.40;23.38;;;;;;;;;;4980660;28;20498;-90
2022/11/14 11:04:14;;;;;;;57.50;24.08;;;;;;;;;;4981504;28;20022;-90
2022/11/14 11:06:41;;;;;;;58.78;25.55;;;;;;;;;;4992906;28;20042;-90
2022/11/14 11:12:02;;;;;;;56.92;25.67;;;;;;;;;;5003258;28;20109;-90
2022/11/14 11:14:35;;;;;;;57.08;26.40;;;;;;;;;;4983049;28;20018;-90
2022/11/14 11:17:08;;;;;;;61.50;25.35;;;;;;;;;;4966623;28;20512;-90
2022/11/14 11:19:34;;;;;;;62.67;25.48;;;;;;;;;;4966628;28;20022;-90
2022/11/14 11:22:00;;;;;;;54.03;25.63;;;;;;;;;;4987009;28;20044;-90
2022/11/14 11:24:33;;;;;;;61.22;25.45;;;;;;;;;;4964437;28;20033;-90
2022/11/14 11:27:19;;;;;;;58.95;25.75;;;;;;;;;;4984178;28;20525;-90
2022/11/14 11:29:45;;;;;;;54.03;24.77;;;;;;;;;;4994237;28;20497;-90
2022/11/14 11:32:22;;;;;;;47.33;22.40;;;;;;;;;;4981800;28;20033;-89
2022/11/14 11:34:49;;;;;;;50.30;23.88;;;;;;;;;;4984796;28;20046;-90
2022/11/14 11:37:18;;;;;;;45.33;20.90;;;;;;;;;;4983314;28;20040;-90
2022/11/14 11:39:58;;;;;;;44.83;23.13;;;;;;;;;;4980560;28;20059;-90
2022/11/14 11:42:38;;;;;;;43.30;21.80;;;;;;;;;;4997709;28;20033;-90
2022/11/14 11:45:09;;;;;;;48.17;22.13;;;;;;;;;;4985281;28;20021;-90
2022/11/14 11:47:35;;;;;;;45.10;21.55;;;;;;;;;;4981891;28;20030;-90
2022/11/14 11:50:02;;;;;;;44.13;22.55;;;;;;;;;;4989773;28;20038;-90
2022/11/14 11:52:39;;;;;;;45.13;20.45;;;;;;;;;;4981159;28;20064;-90
2022/11/14 11:55:08;;;;;;;45.42;22.83;;;;;;;;;;4978476;28;20029;-90
2022/11/14 11:57:43;;;;;;;51.83;26.38;;;;;;;;;;4980352;28;20034;-91
2022/11/14 12:00:20;;;;;;;45.35;21.98;;;;;;;;;;4981720;28;20045;-91
2022/11/14 12:02:50;;;;;;;50.15;24.90;;;;;;;;;;5001023;28;20576;-90
2022/11/14 12:05:25;;;;;;;46.40;22.55;;;;;;;;;;4995229;28;20029;-90
2022/11/14 12:08:06;;;;;;;45.65;23.27;;;;;;;;;;5000590;28;20605;-90
2022/11/14 12:10:40;;;;;;;44.45;23.17;;;;;;;;;;4980932;28;20392;-91
2022/11/14 12:13:15;;;;;;;46.38;24.27;;;;;;;;;;4980839;28;20034;-89
2022/11/14 12:15:48;;;;;;;44.30;22.83;;;;;;;;;;4976121;28;20046;-90
2022/11/14 12:18:20;;;;;;;47.85;24.42;;;;;;;;;;4994775;28;20296;-90
2022/11/14 12:21:16;;;;;;;44.90;21.25;;;;;;;;;;4975248;28;20034;-90
2022/11/14 12:24:00;;;;;;;49.97;23.17;;;;;;;;;;4966096;28;20049;-90
2022/11/14 12:26:39;;;;;;;50.50;22.98;;;;;;;;;;4982499;28;20548;-90
2022/11/14 12:29:05;;;;;;;45.47;19.63;;;;;;;;;;4983825;28;20037;-90
2022/11/14 12:31:33;;;;;;;41.03;20.42;;;;;;;;;;4998572;28;20057;-91
2022/11/14 12:34:02;;;;;;;44.35;21.00;;;;;;;;;;4984634;28;20509;-90
2022/11/14 12:36:30;;;;;;;45.13;22.45;;;;;;;;;;4984838;28;20124;-90
2022/11/14 12:38:57;;;;;;;36.78;19.15;;;;;;;;;;4984105;28;20512;-91
2022/11/14 12:41:27;;;;;;;39.92;22.33;;;;;;;;;;5011991;28;20046;-91
2022/11/14 12:44:13;;;;;;;45.90;21.83;;;;;;;;;;5003167;28;20061;-90
2022/11/14 12:46:59;;;;;;;43.17;21.23;;;;;;;;;;4998634;28;20037;-90
2022/11/14 12:49:44;;;;;;;36.70;19.40;;;;;;;;;;5000835;28;20238;-90
2022/11/14 12:52:29;;;;;;;52.17;22.17;;;;;;;;;;5002653;28;20098;-90
2022/11/14 12:54:55;;;;;;;39.35;20.75;;;;;;;;;;4992212;28;20034;-90
2022/11/14 12:57:46;;;;;;;47.20;20.20;;;;;;;;;;5000246;28;20290;-91
2022/11/14 13:00:13;;;;;;;34.97;17.67;;;;;;;;;;5003816;28;20026;-91
2022/11/14 13:02:59;;;;;;;39.05;19.80;;;;;;;;;;4999626;28;20037;-90
2022/11/14 13:05:48;;;;;;;36.97;20.20;;;;;;;;;;5014048;28;20032;-90
2022/11/14 13:08:33;;;;;;;42.05;19.42;;;;;;;;;;4988046;28;20041;-90
2022/11/14 13:10:59;;;;;;;45.53;21.20;;;;;;;;;;4995363;28;20044;-90
2022/11/14 13:22:10;;;;;;;34.65;18.33;;;;;;;;;;5011157;28;20512;-90
2022/11/14 13:24:58;;;;;;;38.58;19.77;;;;;;;;;;4989601;28;20025;-90
2022/11/14 13:27:28;;;;;;;34.17;18.30;;;;;;;;;;4994756;28;20034;-90
2022/11/14 13:29:56;;;;;;;37.20;19.23;;;;;;;;;;4977625;28;20139;-91
2022/11/14 13:32:40;;;;;;;38.83;21.05;;;;;;;;;;4983428;28;20526;-91
2022/11/14 13:35:30;;;;;;;34.83;17.85;;;;;;;;;;4997409;28;20029;-90
2022/11/14 13:38:15;;;;;;;38.85;18.48;;;;;;;;;;4991427;28;20130;-91
2022/11/14 13:40:55;;;;;;;41.00;20.95;;;;;;;;;;4991220;28;20051;-91
2022/11/14 13:43:40;;;;;;;38.92;19.27;;;;;;;;;;5000294;28;20030;-90
2022/11/14 13:46:18;;;;;;;38.33;19.83;;;;;;;;;;4996734;28;20029;-91
2022/11/14 13:48:56;;;;;;;35.08;19.05;;;;;;;;;;4996706;28;20033;-90
2022/11/14 13:51:24;;;;;;;37.97;19.63;;;;;;;;;;4996139;28;20079;-90
2022/11/14 13:53:50;;;;;;;37.95;19.83;;;;;;;;;;5014774;28;20519;-90
2022/11/14 13:56:28;;;;;;;36.42;19.42;;;;;;;;;;4996020;28;20124;-90
2022/11/14 13:59:20;;;;;;;45.17;21.80;;;;;;;;;;5000143;28;20025;-90
2022/11/14 14:02:05;;;;;;;37.33;18.88;;;;;;;;;;4998272;28;20485;-90
2022/11/14 14:04:50;;;;;;;40.58;19.42;;;;;;;;;;4993592;28;20026;-89
2022/11/14 14:07:25;;;;;;;37.20;17.23;;;;;;;;;;4999538;28;20040;-90
2022/11/14 14:10:03;;;;;;;41.20;20.55;;;;;;;;;;4999709;28;20797;-89
2022/11/14 14:12:39;;;;;;;44.58;20.85;;;;;;;;;;5017208;28;20378;-90
2022/11/14 14:15:14;;;;;;;48.45;19.92;;;;;;;;;;5001956;28;20069;-90
2022/11/14 14:17:42;;;;;;;43.15;20.30;;;;;;;;;;5014897;28;20026;-90
2022/11/14 14:20:27;;;;;;;36.47;18.80;;;;;;;;;;5001692;28;20072;-89
2022/11/14 14:22:56;;;;;;;38.97;19.45;;;;;;;;;;5023115;28;20648;-90
2022/11/14 14:25:39;;;;;;;40.95;20.00;;;;;;;;;;5000784;28;20021;-89
2022/11/14 14:28:10;;;;;;;37.97;19.40;;;;;;;;;;5015337;28;20041;-90
2022/11/14 14:30:39;;;;;;;40.58;18.80;;;;;;;;;;5002413;28;20030;-90
2022/11/14 14:33:10;;;;;;;38.88;19.88;;;;;;;;;;5002734;28;20713;-89
2022/11/14 14:35:38;;;;;;;38.67;18.70;;;;;;;;;;4997865;28;20037;-90
2022/11/14 14:38:09;;;;;;;39.45;18.02;;;;;;;;;;5002939;28;20036;-89
2022/11/14 14:40:37;;;;;;;36.97;18.85;;;;;;;;;;5001316;28;20050;-90